createdAt,value
2023-03-02T00:02:03.393Z,102199.63
2023-03-02T00:04:42.556Z,102204.63
2023-03-02T00:07:14.486Z,102201.94
2023-03-02T00:09:44.625Z,102197.56
2023-03-02T00:12:12.726Z,102197.47
2023-03-02T00:14:40.066Z,102196.56
2023-03-02T00:17:08.195Z,102195.59
2023-03-02T00:19:36.513Z,102199.25
2023-03-02T00:22:04.972Z,102197.47
2023-03-02T00:24:32.479Z,102200.84
2023-03-02T00:27:00.158Z,102189.59
2023-03-02T00:29:27.832Z,102191.19
2023-03-02T00:31:55.578Z,102198.09
2023-03-02T00:34:25.987Z,102198.97
2023-03-02T00:36:57.409Z,102203.78
2023-03-02T00:39:27.402Z,102201.03
2023-03-02T00:41:54.621Z,102196.56
2023-03-02T00:44:22.076Z,102206.81
2023-03-02T00:46:50.037Z,102208.34
2023-03-02T00:49:26.803Z,102203.88
2023-03-02T00:51:54.461Z,102208.06
2023-03-02T00:54:22.697Z,102201.88
2023-03-02T00:56:50.757Z,102200.09
2023-03-02T00:59:26.725Z,102201.72
2023-03-02T01:02:00.342Z,102197.13
2023-03-02T01:04:31.474Z,102201.41
2023-03-02T01:07:03.958Z,102190.16
2023-03-02T01:09:35.110Z,102190.97
2023-03-02T01:12:02.545Z,102184.00
2023-03-02T01:14:30.277Z,102181.31
2023-03-02T01:16:57.691Z,102179.41
2023-03-02T01:19:25.153Z,102174.06
2023-03-02T01:21:54.932Z,102180.03
2023-03-02T01:24:22.813Z,102175.75
2023-03-02T01:26:50.554Z,102172.28
2023-03-02T01:29:20.908Z,102168.88
2023-03-02T01:32:05.197Z,102169.59
2023-03-02T01:34:33.009Z,102165.28
2023-03-02T01:37:00.142Z,102154.03
2023-03-02T01:39:31.162Z,102155.66
2023-03-02T01:41:58.491Z,102156.34
2023-03-02T01:44:44.653Z,102153.75
2023-03-02T01:47:27.762Z,102151.97
2023-03-02T01:50:11.913Z,102157.06
2023-03-02T01:52:51.970Z,102147.59
2023-03-02T01:55:34.873Z,102149.19
2023-03-02T01:58:11.982Z,102146.50
2023-03-02T02:00:57.525Z,102141.13
2023-03-02T02:07:05.503Z,102144.53
2023-03-02T02:09:54.730Z,102137.56
2023-03-02T02:15:22.580Z,102138.28
2023-03-02T02:17:56.858Z,102135.69
2023-03-02T02:20:48.245Z,102139.16
2023-03-02T02:23:59.258Z,102136.38
2023-03-02T02:26:41.833Z,102148.44
2023-03-02T02:30:38.891Z,102138.78
2023-03-02T02:34:00.612Z,102133.31
2023-03-02T02:36:58.767Z,102129.72
2023-03-02T02:40:08.420Z,102123.56
2023-03-02T02:50:11.681Z,102121.41
2023-03-02T02:52:51.064Z,102117.91
2023-03-02T02:55:29.646Z,102117.75
2023-03-02T02:58:21.820Z,102112.56
2023-03-02T03:01:42.425Z,102118.53
2023-03-02T03:04:21.463Z,102126.19
2023-03-02T03:08:20.387Z,102125.31
2023-03-02T03:16:17.878Z,102119.13
2023-03-02T03:22:32.770Z,102113.69
2023-03-02T03:29:02.286Z,102114.19
2023-03-02T03:31:35.835Z,102110.81
2023-03-02T03:37:52.480Z,102101.16
2023-03-02T03:41:01.497Z,102104.44
2023-03-02T03:43:32.884Z,102105.31
2023-03-02T03:46:17.254Z,102108.63
2023-03-02T03:48:49.955Z,102099.06
2023-03-02T03:51:53.804Z,102099.88
2023-03-02T03:54:49.702Z,102098.91
2023-03-02T04:00:46.893Z,102100.28
2023-03-02T04:03:16.094Z,102108.06
2023-03-02T04:06:03.951Z,102115.81
2023-03-02T04:09:17.905Z,102111.44
2023-03-02T04:11:55.237Z,102113.16
2023-03-02T04:14:32.674Z,102105.19
2023-03-02T04:17:21.762Z,102110.25
2023-03-02T04:19:51.176Z,102106.69
2023-03-02T04:22:28.845Z,102107.31
2023-03-02T04:25:05.537Z,102109.19
2023-03-02T04:27:36.851Z,102114.25
2023-03-02T04:30:08.005Z,102106.59
2023-03-02T04:32:47.382Z,102102.22
2023-03-02T04:35:38.855Z,102107.38
2023-03-02T04:38:33.103Z,102114.16
2023-03-02T04:41:00.892Z,102103.81
2023-03-02T04:43:33.335Z,102109.88
2023-03-02T04:46:30.374Z,102104.72
2023-03-02T04:49:41.977Z,102100.13
2023-03-02T04:52:20.586Z,102102.72
2023-03-02T04:55:06.890Z,102105.22
2023-03-02T04:57:34.936Z,102106.91
2023-03-02T05:00:09.897Z,102102.44
2023-03-02T05:02:40.597Z,102107.63
2023-03-02T05:05:21.462Z,102109.19
2023-03-02T05:08:09.343Z,102110.97
2023-03-02T05:10:38.082Z,102100.53
2023-03-02T05:13:22.051Z,102099.53
2023-03-02T05:15:51.001Z,102102.94
2023-03-02T05:18:20.197Z,102114.88
2023-03-02T05:20:47.599Z,102117.34
2023-03-02T05:23:25.230Z,102112.88
2023-03-02T05:26:01.530Z,102109.41
2023-03-02T05:28:29.950Z,102113.78
2023-03-02T05:31:00.513Z,102110.09
2023-03-02T05:33:30.349Z,102117.16
2023-03-02T05:35:58.012Z,102115.38
2023-03-02T05:38:34.931Z,102122.25
2023-03-02T05:41:19.046Z,102126.53
2023-03-02T05:43:56.304Z,102118.66
2023-03-02T05:46:27.180Z,102125.63
2023-03-02T05:48:55.518Z,102123.03
2023-03-02T05:51:25.708Z,102124.66
2023-03-02T05:54:04.857Z,102124.66
2023-03-02T05:56:55.124Z,102118.56
2023-03-02T05:59:23.241Z,102114.16
2023-03-02T06:01:50.887Z,102114.28
2023-03-02T06:04:19.315Z,102113.50
2023-03-02T06:06:49.494Z,102112.47
2023-03-02T06:09:17.977Z,102110.81
2023-03-02T06:11:48.385Z,102108.09
2023-03-02T06:14:16.371Z,102108.09
2023-03-02T06:16:45.919Z,102102.03
2023-03-02T06:19:13.689Z,102105.50
2023-03-02T06:21:43.004Z,102098.78
2023-03-02T06:24:13.565Z,102111.81
2023-03-02T06:26:43.437Z,102113.59
2023-03-02T06:29:24.091Z,102115.38
2023-03-02T06:31:51.680Z,102112.88
2023-03-02T06:34:22.110Z,102126.03
2023-03-02T06:36:54.093Z,102131.31
2023-03-02T06:39:26.560Z,102127.13
2023-03-02T06:41:54.641Z,102125.50
2023-03-02T06:44:22.402Z,102120.44
2023-03-02T06:46:57.377Z,102127.50
2023-03-02T06:49:30.835Z,102126.81
2023-03-02T06:52:26.321Z,102129.69
2023-03-02T06:57:48.801Z,102131.84
2023-03-02T07:00:26.600Z,102134.66
2023-03-02T07:03:07.262Z,102124.56
2023-03-02T07:05:38.165Z,102129.16
2023-03-02T07:08:19.117Z,102137.19
2023-03-02T07:10:49.305Z,102138.31
2023-03-02T07:13:22.732Z,102129.09
2023-03-02T07:15:52.570Z,102131.09
2023-03-02T07:18:19.863Z,102125.22
2023-03-02T07:20:50.377Z,102127.38
2023-03-02T07:23:17.763Z,102128.44
2023-03-02T07:25:45.096Z,102137.41
2023-03-02T07:28:12.555Z,102134.41
2023-03-02T07:30:39.839Z,102145.75
2023-03-02T07:33:07.216Z,102145.25
2023-03-02T07:35:34.553Z,102141.34
2023-03-02T07:38:01.987Z,102144.19
2023-03-02T07:40:29.062Z,102142.78
2023-03-02T07:42:56.602Z,102148.31
2023-03-02T07:45:25.758Z,102141.72
2023-03-02T07:47:53.079Z,102141.88
2023-03-02T07:50:20.723Z,102143.16
2023-03-02T07:52:48.319Z,102140.84
2023-03-02T07:55:15.324Z,102151.69
2023-03-02T07:57:45.594Z,102150.44
2023-03-02T08:00:13.858Z,102153.28
2023-03-02T08:02:42.707Z,102156.25
2023-03-02T08:05:15.365Z,102152.22
2023-03-02T08:08:07.228Z,102158.84
2023-03-02T08:10:56.216Z,102146.19
2023-03-02T08:13:26.927Z,102153.53
2023-03-02T08:16:33.971Z,102150.56
2023-03-02T08:36:21.720Z,102145.88
2023-03-02T08:43:40.211Z,102146.31
2023-03-02T08:47:12.659Z,102146.16
2023-03-02T08:50:13.656Z,102143.22
2023-03-02T08:52:46.471Z,102153.22
2023-03-02T08:55:14.160Z,102153.78
2023-03-02T08:57:41.730Z,102143.78
2023-03-02T09:00:14.823Z,102157.28
2023-03-02T09:02:42.472Z,102155.88
2023-03-02T09:05:12.276Z,102153.75
2023-03-02T09:07:39.703Z,102149.72
2023-03-02T09:10:07.409Z,102151.00
2023-03-02T09:12:34.796Z,102146.25
2023-03-02T09:15:01.837Z,102144.84
2023-03-02T09:17:29.089Z,102152.22
2023-03-02T09:19:56.259Z,102142.25
2023-03-02T09:22:23.961Z,102147.84
2023-03-02T09:24:51.177Z,102136.03
2023-03-02T09:27:18.417Z,102146.69
2023-03-02T09:29:45.893Z,102141.72
2023-03-02T09:32:15.536Z,102138.59
2023-03-02T09:34:48.437Z,102140.75
2023-03-02T09:37:18.404Z,102138.50
2023-03-02T09:39:45.736Z,102144.03
2023-03-02T09:43:12.378Z,102140.81
2023-03-02T09:46:09.359Z,102145.63
2023-03-02T09:49:04.166Z,102147.75
2023-03-02T09:52:04.350Z,102148.19
2023-03-02T09:54:32.417Z,102141.44
2023-03-02T09:57:00.389Z,102150.50
2023-03-02T09:59:42.021Z,102142.13
2023-03-02T10:02:34.793Z,102138.91
2023-03-02T10:05:06.599Z,102138.19
2023-03-02T10:07:36.783Z,102128.94
2023-03-02T10:10:26.463Z,102141.41
2023-03-02T10:13:12.020Z,102132.28
2023-03-02T10:16:05.149Z,102138.72
2023-03-02T10:18:55.750Z,102139.94
2023-03-02T10:21:27.464Z,102142.00
2023-03-02T10:24:15.074Z,102145.78
2023-03-02T10:26:46.684Z,102149.53
2023-03-02T10:29:29.494Z,102145.44
2023-03-02T10:32:43.579Z,102141.31
2023-03-02T10:35:24.071Z,102142.53
2023-03-02T10:38:02.267Z,102142.69
2023-03-02T10:40:34.704Z,102134.28
2023-03-02T10:43:03.000Z,102130.19
2023-03-02T10:45:32.471Z,102126.13
2023-03-02T10:48:11.762Z,102131.69
2023-03-02T10:50:39.593Z,102126.56
2023-03-02T10:53:24.980Z,102121.59
2023-03-02T10:55:53.932Z,102124.41
2023-03-02T10:58:33.194Z,102107.16
2023-03-02T11:01:15.168Z,102116.13
2023-03-02T11:03:42.423Z,102118.16
2023-03-02T11:06:22.616Z,102121.81
2023-03-02T11:09:02.563Z,102119.44
2023-03-02T11:11:30.357Z,102124.84
2023-03-02T11:14:16.596Z,102115.38
2023-03-02T11:16:44.316Z,102118.28
2023-03-02T11:19:24.546Z,102108.03
2023-03-02T11:22:06.578Z,102114.44
2023-03-02T11:24:51.801Z,102117.22
2023-03-02T11:27:28.143Z,102108.66
2023-03-02T11:30:02.953Z,102108.03
2023-03-02T11:33:02.386Z,102108.31
2023-03-02T11:36:24.836Z,102105.88
2023-03-02T11:38:55.534Z,102106.09
2023-03-02T11:41:32.979Z,102099.34
2023-03-02T11:44:12.208Z,102106.50
2023-03-02T11:46:39.611Z,102095.31
2023-03-02T11:49:38.401Z,102104.28
2023-03-02T11:52:08.926Z,102091.31
2023-03-02T11:55:13.300Z,102093.97
2023-03-02T11:57:49.845Z,102086.25
2023-03-02T12:00:56.270Z,102088.16
2023-03-02T12:03:45.194Z,102084.88
2023-03-02T12:06:15.450Z,102081.56
2023-03-02T12:08:46.422Z,102073.78
2023-03-02T12:11:19.722Z,102068.75
2023-03-02T12:14:39.316Z,102075.84
2023-03-02T12:17:21.001Z,102078.72
2023-03-02T12:19:50.955Z,102074.53
2023-03-02T12:22:32.015Z,102073.00
2023-03-02T12:25:26.365Z,102066.19
2023-03-02T12:27:55.176Z,102060.22
2023-03-02T12:30:28.272Z,102066.53
2023-03-02T12:33:22.228Z,102063.19
2023-03-02T12:35:52.982Z,102061.56
2023-03-02T12:38:33.943Z,102064.25
2023-03-02T12:41:41.557Z,102057.38
2023-03-02T12:44:58.798Z,102052.28
2023-03-02T12:47:30.264Z,102060.28
2023-03-02T12:50:05.860Z,102052.50
2023-03-02T12:52:36.513Z,102053.50
2023-03-02T12:55:25.058Z,102060.59
2023-03-02T12:58:01.374Z,102053.66
2023-03-02T13:00:33.094Z,102045.00
2023-03-02T13:03:07.351Z,102047.66
2023-03-02T13:05:36.059Z,102039.91
2023-03-02T13:08:14.357Z,102043.56
2023-03-02T13:10:49.032Z,102039.22
2023-03-02T13:13:27.473Z,102027.06
2023-03-02T13:16:06.147Z,102027.13
2023-03-02T13:18:39.422Z,102027.25
2023-03-02T13:21:12.717Z,102017.69
2023-03-02T13:23:50.443Z,102016.94
2023-03-02T13:26:31.679Z,102004.81
2023-03-02T13:29:20.643Z,102009.31
2023-03-02T13:31:47.968Z,102011.09
2023-03-02T13:34:28.424Z,102001.53
2023-03-02T13:36:55.986Z,101998.03
2023-03-02T13:39:31.584Z,101994.63
2023-03-02T13:42:02.065Z,102002.66
2023-03-02T13:44:32.994Z,101994.84
2023-03-02T13:47:01.941Z,102006.31
2023-03-02T13:49:35.788Z,101999.34
2023-03-02T13:52:21.136Z,101999.38
2023-03-02T13:54:48.268Z,101999.41
2023-03-02T13:57:21.527Z,101991.63
2023-03-02T13:59:49.182Z,101989.06
2023-03-02T14:02:30.853Z,101995.19
2023-03-02T14:04:58.289Z,101991.72
2023-03-02T14:07:26.578Z,101998.81
2023-03-02T14:09:54.565Z,101992.75
2023-03-02T14:12:30.717Z,101985.81
2023-03-02T14:15:01.782Z,101988.53
2023-03-02T14:17:29.564Z,101985.94
2023-03-02T14:19:56.904Z,101992.06
2023-03-02T14:22:27.536Z,101980.66
2023-03-02T14:24:54.619Z,101982.44
2023-03-02T14:27:26.297Z,101975.44
2023-03-02T14:29:53.555Z,101976.38
2023-03-02T14:32:21.044Z,101978.13
2023-03-02T14:34:48.347Z,101986.06
2023-03-02T14:37:20.261Z,101973.81
2023-03-02T14:39:55.630Z,101969.47
2023-03-02T14:42:23.948Z,101970.44
2023-03-02T14:44:51.983Z,101969.56
2023-03-02T14:47:19.810Z,101966.06
2023-03-02T14:49:48.985Z,101962.53
2023-03-02T14:52:32.149Z,101966.06
2023-03-02T14:55:08.035Z,101978.31
2023-03-02T14:57:38.814Z,101967.81
2023-03-02T15:00:08.732Z,101965.16
2023-03-02T15:02:36.154Z,101960.75
2023-03-02T15:05:03.630Z,101964.25
2023-03-02T15:07:30.695Z,101957.22
2023-03-02T15:09:58.665Z,101954.59
2023-03-02T15:12:26.265Z,101964.25
2023-03-02T15:14:53.716Z,101952.00
2023-03-02T15:17:20.953Z,101955.50
2023-03-02T15:19:48.593Z,101953.72
2023-03-02T15:22:16.369Z,101955.47
2023-03-02T15:24:43.839Z,101951.09
2023-03-02T15:27:11.126Z,101941.41
2023-03-02T15:29:38.576Z,101948.44
2023-03-02T15:32:06.040Z,101943.09
2023-03-02T15:34:34.172Z,101947.47
2023-03-02T15:37:01.573Z,101938.72
2023-03-02T15:39:28.676Z,101943.97
2023-03-02T15:41:55.911Z,101943.09
2023-03-02T15:44:25.696Z,101933.44
2023-03-02T15:46:59.143Z,101943.06
2023-03-02T15:49:29.354Z,101926.38
2023-03-02T15:51:57.786Z,101938.53
2023-03-02T15:54:27.077Z,101932.34
2023-03-02T15:56:55.492Z,101928.81
2023-03-02T15:59:26.630Z,101931.41
2023-03-02T16:01:59.178Z,101937.44
2023-03-02T16:04:27.432Z,101933.03
2023-03-02T16:06:56.360Z,101937.34
2023-03-02T16:09:25.649Z,101934.63
2023-03-02T16:11:53.584Z,101937.19
2023-03-02T16:14:20.851Z,101943.19
2023-03-02T16:16:48.615Z,101948.41
2023-03-02T16:19:20.281Z,101939.69
2023-03-02T16:21:48.374Z,101948.56
2023-03-02T16:24:17.057Z,101939.09
2023-03-02T16:26:45.303Z,101945.44
2023-03-02T16:29:13.766Z,101948.97
2023-03-02T16:31:41.608Z,101941.94
2023-03-02T16:34:11.242Z,101944.44
2023-03-02T16:36:41.017Z,101951.41
2023-03-02T16:39:10.638Z,101943.38
2023-03-02T16:41:41.758Z,101952.75
2023-03-02T16:44:10.973Z,101955.06
2023-03-02T16:46:40.138Z,101944.34
2023-03-02T16:49:07.354Z,101950.31
2023-03-02T16:51:34.555Z,101954.47
2023-03-02T16:54:02.442Z,101961.28
2023-03-02T16:56:30.091Z,101961.91
2023-03-02T16:58:59.982Z,101959.06
2023-03-02T17:01:28.119Z,101957.03
2023-03-02T17:03:56.206Z,101963.88
2023-03-02T17:06:24.008Z,101961.91
2023-03-02T17:08:52.058Z,101963.44
2023-03-02T17:11:20.202Z,101969.34
2023-03-02T17:13:47.632Z,101968.28
2023-03-02T17:16:16.849Z,101980.31
2023-03-02T17:18:47.100Z,101972.31
2023-03-02T17:21:16.850Z,101976.50
2023-03-02T17:23:45.725Z,101983.25
2023-03-02T17:26:12.844Z,101981.22
2023-03-02T17:28:40.349Z,101988.81
2023-03-02T17:31:07.777Z,101979.81
2023-03-02T17:33:35.174Z,102000.75
2023-03-02T17:36:09.753Z,101998.81
2023-03-02T17:38:36.815Z,102003.16
2023-03-02T17:41:09.778Z,102000.41
2023-03-02T17:43:40.124Z,102009.88
2023-03-02T17:46:25.450Z,102012.25
2023-03-02T17:48:56.535Z,102012.06
2023-03-02T17:51:26.079Z,102012.75
2023-03-02T17:53:55.388Z,102024.78
2023-03-02T17:56:26.314Z,102021.94
2023-03-02T17:58:55.839Z,102033.97
2023-03-02T18:01:23.073Z,102037.25
2023-03-02T18:03:50.772Z,102038.75
2023-03-02T18:06:20.600Z,102044.69
2023-03-02T18:08:49.828Z,102048.03
2023-03-02T18:11:20.621Z,102047.94
2023-03-02T18:13:48.185Z,102051.25
2023-03-02T18:16:15.517Z,102057.22
2023-03-02T18:18:42.886Z,102056.94
2023-03-02T18:21:09.949Z,102065.53
2023-03-02T18:23:37.382Z,102062.75
2023-03-02T18:26:04.783Z,102073.03
2023-03-02T18:28:32.144Z,102066.75
2023-03-02T18:31:00.156Z,102080.59
2023-03-02T18:33:27.385Z,102074.34
2023-03-02T18:35:54.694Z,102077.66
2023-03-02T18:38:21.857Z,102076.56
2023-03-02T18:40:48.986Z,102077.22
2023-03-02T18:43:16.292Z,102083.19
2023-03-02T18:45:43.405Z,102083.00
2023-03-02T18:48:10.930Z,102086.38
2023-03-02T18:50:39.590Z,102083.72
2023-03-02T18:53:08.648Z,102089.69
2023-03-02T18:55:40.439Z,102087.03
2023-03-02T18:58:14.846Z,102092.16
2023-03-02T19:00:42.374Z,102098.16
2023-03-02T19:03:09.545Z,102104.97
2023-03-02T19:05:36.693Z,102106.53
2023-03-02T19:08:04.831Z,102112.53
2023-03-02T19:10:32.552Z,102102.75
2023-03-02T19:13:00.168Z,102103.50
2023-03-02T19:15:27.717Z,102106.91
2023-03-02T19:17:55.869Z,102112.91
2023-03-02T19:20:24.817Z,102114.41
2023-03-02T19:22:52.012Z,102108.13
2023-03-02T19:25:20.040Z,102121.06
2023-03-02T19:27:47.560Z,102113.94
2023-03-02T19:30:23.087Z,102116.34
2023-03-02T19:32:53.940Z,102117.06
2023-03-02T19:35:25.702Z,102118.63
2023-03-02T19:37:53.381Z,102116.78
2023-03-02T19:40:24.804Z,102129.59
2023-03-02T19:42:53.355Z,102112.00
2023-03-02T19:45:27.382Z,102120.50
2023-03-02T19:47:57.805Z,102119.56
2023-03-02T19:50:27.166Z,102118.53
2023-03-02T19:52:56.220Z,102113.19
2023-03-02T19:55:24.808Z,102118.28
2023-03-02T19:57:59.595Z,102118.94
2023-03-02T20:00:32.190Z,102113.56
2023-03-02T20:03:00.004Z,102121.09
2023-03-02T20:05:28.114Z,102119.25
2023-03-02T20:07:56.048Z,102114.66
2023-03-02T20:10:40.233Z,102122.31
2023-03-02T20:13:09.158Z,102123.94
2023-03-02T20:15:40.395Z,102126.28
2023-03-02T20:18:10.736Z,102131.34
2023-03-02T20:20:37.761Z,102125.94
2023-03-02T20:23:05.106Z,102126.63
2023-03-02T20:25:33.875Z,102136.03
2023-03-02T20:28:05.538Z,102138.50
2023-03-02T20:30:37.989Z,102130.47
2023-03-02T20:33:07.897Z,102133.00
2023-03-02T20:35:40.155Z,102135.38
2023-03-02T20:38:16.440Z,102136.16
2023-03-02T20:40:44.027Z,102132.53
2023-03-02T20:43:11.766Z,102136.63
2023-03-02T20:45:39.330Z,102139.09
2023-03-02T20:48:07.494Z,102149.44
2023-03-02T20:50:36.625Z,102143.19
2023-03-02T20:53:05.726Z,102154.28
2023-03-02T20:55:33.865Z,102154.97
2023-03-02T20:58:02.061Z,102153.06
2023-03-02T21:00:30.671Z,102153.72
2023-03-02T21:02:58.894Z,102153.59
2023-03-02T21:05:31.189Z,102160.34
2023-03-02T21:08:00.267Z,102160.19
2023-03-02T21:11:00.461Z,102160.97
2023-03-02T21:14:09.983Z,102171.00
2023-03-02T21:18:10.738Z,102166.38
2023-03-02T21:21:40.374Z,102166.13
2023-03-02T21:58:53.900Z,102158.94
2023-03-02T22:01:21.946Z,102151.03
2023-03-02T22:03:49.175Z,102152.59
2023-03-02T22:06:26.380Z,102156.78
2023-03-02T22:08:55.819Z,102151.41
2023-03-02T22:11:35.675Z,102156.44
2023-03-02T22:14:16.574Z,102158.88
2023-03-02T22:16:47.482Z,102160.44
2023-03-02T22:19:24.750Z,102161.09
2023-03-02T22:21:53.628Z,102163.53
2023-03-02T22:24:26.205Z,102161.59
2023-03-02T22:26:55.888Z,102158.81
2023-03-02T22:29:43.795Z,102156.97
2023-03-02T22:32:31.204Z,102157.69
2023-03-02T22:35:02.700Z,102156.72
2023-03-02T22:37:34.511Z,102160.72
2023-03-02T22:40:21.430Z,102152.84
2023-03-02T22:42:48.835Z,102164.81
2023-03-02T22:45:22.441Z,102163.03
2023-03-02T22:47:52.820Z,102161.25
2023-03-02T22:50:24.902Z,102161.19
2023-03-02T22:52:54.417Z,102161.94
2023-03-02T22:55:43.111Z,102161.75
2023-03-02T22:58:47.914Z,102161.66
2023-03-02T23:01:40.389Z,102168.50
2023-03-02T23:04:43.373Z,102158.66
2023-03-02T23:07:21.892Z,102168.97
2023-03-02T23:09:49.730Z,102167.00
2023-03-02T23:12:27.289Z,102159.94
2023-03-02T23:14:57.711Z,102166.84
2023-03-02T23:17:37.163Z,102174.56
2023-03-02T23:20:12.336Z,102166.50
2023-03-02T23:22:39.582Z,102169.91
2023-03-02T23:25:08.967Z,102176.66
2023-03-02T23:27:36.232Z,102181.03
2023-03-02T23:30:04.210Z,102182.66
2023-03-02T23:32:31.512Z,102175.59
2023-03-02T23:34:58.983Z,102168.53
2023-03-02T23:37:26.006Z,102173.63
2023-03-02T23:39:53.240Z,102176.09
2023-03-02T23:42:20.417Z,102167.28
2023-03-02T23:44:47.824Z,102159.34
2023-03-02T23:47:14.878Z,102161.03
2023-03-02T23:49:42.113Z,102165.16
2023-03-02T23:52:09.239Z,102161.59
2023-03-02T23:54:36.446Z,102159.72
2023-03-02T23:57:03.614Z,102167.44
2023-03-02T23:59:30.692Z,102166.34
